sensor_id;sensor_type;location;lat;lon;timestamp;temperature;humidity
41324;DHT22;27073;51.128;4.220;2023-06-26T00:00:20;23.70;1.00
41324;DHT22;27073;51.128;4.220;2023-06-26T00:02:46;23.80;1.00
41324;DHT22;27073;51.128;4.220;2023-06-26T00:05:13;23.70;1.00
41324;DHT22;27073;51.128;4.220;2023-06-26T00:07:39;23.80;1.00
41324;DHT22;27073;51.128;4.220;2023-06-26T00:10:05;23.90;1.00
41324;DHT22;27073;51.128;4.220;2023-06-26T00:12:31;23.80;1.00
41324;DHT22;27073;51.128;4.220;2023-06-26T00:14:57;23.70;1.00
41324;DHT22;27073;51.128;4.220;2023-06-26T00:17:23;23.60;1.00
41324;DHT22;27073;51.128;4.220;2023-06-26T00:19:50;23.50;1.00
41324;DHT22;27073;51.128;4.220;2023-06-26T00:22:16;23.40;1.00
41324;DHT22;27073;51.128;4.220;2023-06-26T00:24:41;23.30;1.00
41324;DHT22;27073;51.128;4.220;2023-06-26T00:27:07;23.30;1.00
41324;DHT22;27073;51.128;4.220;2023-06-26T00:29:33;23.30;1.00
41324;DHT22;27073;51.128;4.220;2023-06-26T00:31:59;23.20;1.00
41324;DHT22;27073;51.128;4.220;2023-06-26T00:34:25;23.10;1.00
41324;DHT22;27073;51.128;4.220;2023-06-26T00:36:51;23.00;1.00
41324;DHT22;27073;51.128;4.220;2023-06-26T00:39:17;23.10;1.00
41324;DHT22;27073;51.128;4.220;2023-06-26T00:41:43;23.10;1.00
41324;DHT22;27073;51.128;4.220;2023-06-26T00:44:10;23.10;1.00
41324;DHT22;27073;51.128;4.220;2023-06-26T00:46:36;23.10;1.00
41324;DHT22;27073;51.128;4.220;2023-06-26T00:49:05;23.10;1.00
41324;DHT22;27073;51.128;4.220;2023-06-26T00:51:31;22.90;1.00
41324;DHT22;27073;51.128;4.220;2023-06-26T00:53:57;22.70;1.00
41324;DHT22;27073;51.128;4.220;2023-06-26T00:56:23;22.70;1.00
41324;DHT22;27073;51.128;4.220;2023-06-26T00:58:48;22.80;1.00
41324;DHT22;27073;51.128;4.220;2023-06-26T01:01:15;22.60;1.00
41324;DHT22;27073;51.128;4.220;2023-06-26T01:03:45;22.60;1.00
41324;DHT22;27073;51.128;4.220;2023-06-26T01:06:17;22.60;1.00
41324;DHT22;27073;51.128;4.220;2023-06-26T01:08:44;22.70;1.00
41324;DHT22;27073;51.128;4.220;2023-06-26T01:11:11;22.70;1.00
41324;DHT22;27073;51.128;4.220;2023-06-26T01:13:37;22.70;1.00
41324;DHT22;27073;51.128;4.220;2023-06-26T01:16:04;22.70;1.00
41324;DHT22;27073;51.128;4.220;2023-06-26T01:18:31;22.50;1.00
41324;DHT22;27073;51.128;4.220;2023-06-26T01:20:58;22.40;1.00
41324;DHT22;27073;51.128;4.220;2023-06-26T01:23:30;22.30;4.60
41324;DHT22;27073;51.128;4.220;2023-06-26T01:28:44;22.30;6.70
41324;DHT22;27073;51.128;4.220;2023-06-26T01:31:11;22.00;15.70
41324;DHT22;27073;51.128;4.220;2023-06-26T01:33:37;21.80;20.60
41324;DHT22;27073;51.128;4.220;2023-06-26T01:36:04;21.80;23.20
41324;DHT22;27073;51.128;4.220;2023-06-26T01:38:30;21.80;24.20
41324;DHT22;27073;51.128;4.220;2023-06-26T01:40:56;21.70;26.80
41324;DHT22;27073;51.128;4.220;2023-06-26T01:54:35;22.00;27.60
41324;DHT22;27073;51.128;4.220;2023-06-26T01:57:04;22.00;27.70
41324;DHT22;27073;51.128;4.220;2023-06-26T01:59:32;21.90;32.40
41324;DHT22;27073;51.128;4.220;2023-06-26T02:02:01;22.00;29.50
41324;DHT22;27073;51.128;4.220;2023-06-26T02:04:27;22.00;32.00
41324;DHT22;27073;51.128;4.220;2023-06-26T02:06:52;21.80;36.70
41324;DHT22;27073;51.128;4.220;2023-06-26T02:09:18;21.70;41.30
41324;DHT22;27073;51.128;4.220;2023-06-26T02:11:44;21.50;45.80
41324;DHT22;27073;51.128;4.220;2023-06-26T02:14:10;21.40;51.30
41324;DHT22;27073;51.128;4.220;2023-06-26T02:16:36;21.30;55.80
41324;DHT22;27073;51.128;4.220;2023-06-26T02:19:02;21.30;57.20
41324;DHT22;27073;51.128;4.220;2023-06-26T02:21:27;21.30;58.10
41324;DHT22;27073;51.128;4.220;2023-06-26T02:23:55;21.40;58.20
41324;DHT22;27073;51.128;4.220;2023-06-26T02:26:21;21.40;56.20
41324;DHT22;27073;51.128;4.220;2023-06-26T02:28:47;21.40;57.30
41324;DHT22;27073;51.128;4.220;2023-06-26T02:31:12;21.40;59.60
41324;DHT22;27073;51.128;4.220;2023-06-26T02:33:38;21.20;65.60
41324;DHT22;27073;51.128;4.220;2023-06-26T02:36:04;21.10;67.50
41324;DHT22;27073;51.128;4.220;2023-06-26T02:38:32;21.00;71.20
41324;DHT22;27073;51.128;4.220;2023-06-26T02:40:58;20.90;74.10
41324;DHT22;27073;51.128;4.220;2023-06-26T02:43:24;20.80;75.50
41324;DHT22;27073;51.128;4.220;2023-06-26T02:45:50;20.90;75.60
41324;DHT22;27073;51.128;4.220;2023-06-26T02:48:16;21.00;74.50
41324;DHT22;27073;51.128;4.220;2023-06-26T02:50:42;20.90;75.70
41324;DHT22;27073;51.128;4.220;2023-06-26T02:53:13;20.90;78.00
41324;DHT22;27073;51.128;4.220;2023-06-26T02:55:41;20.80;78.50
41324;DHT22;27073;51.128;4.220;2023-06-26T02:58:07;20.80;80.50
41324;DHT22;27073;51.128;4.220;2023-06-26T03:00:34;20.70;83.00
41324;DHT22;27073;51.128;4.220;2023-06-26T03:03:03;20.50;87.60
41324;DHT22;27073;51.128;4.220;2023-06-26T03:05:29;20.40;89.20
41324;DHT22;27073;51.128;4.220;2023-06-26T03:07:56;20.30;90.70
41324;DHT22;27073;51.128;4.220;2023-06-26T03:10:21;20.20;91.60
41324;DHT22;27073;51.128;4.220;2023-06-26T03:12:48;20.20;92.70
41324;DHT22;27073;51.128;4.220;2023-06-26T03:15:16;20.10;93.80
41324;DHT22;27073;51.128;4.220;2023-06-26T03:17:42;20.10;94.00
41324;DHT22;27073;51.128;4.220;2023-06-26T03:20:12;20.10;94.70
41324;DHT22;27073;51.128;4.220;2023-06-26T03:23:07;20.10;94.00
41324;DHT22;27073;51.128;4.220;2023-06-26T03:25:33;19.80;96.40
41324;DHT22;27073;51.128;4.220;2023-06-26T03:28:12;19.80;96.00
41324;DHT22;27073;51.128;4.220;2023-06-26T03:30:39;19.80;96.20
41324;DHT22;27073;51.128;4.220;2023-06-26T03:33:05;19.70;96.60
41324;DHT22;27073;51.128;4.220;2023-06-26T03:35:31;19.70;97.10
41324;DHT22;27073;51.128;4.220;2023-06-26T03:37:57;19.60;97.50
41324;DHT22;27073;51.128;4.220;2023-06-26T03:40:23;19.50;97.60
41324;DHT22;27073;51.128;4.220;2023-06-26T03:42:49;19.60;97.20
41324;DHT22;27073;51.128;4.220;2023-06-26T03:45:16;19.50;98.00
41324;DHT22;27073;51.128;4.220;2023-06-26T03:47:43;19.50;97.90
41324;DHT22;27073;51.128;4.220;2023-06-26T03:50:09;19.60;97.80
41324;DHT22;27073;51.128;4.220;2023-06-26T03:52:35;19.70;97.30
41324;DHT22;27073;51.128;4.220;2023-06-26T03:55:00;19.70;97.80
41324;DHT22;27073;51.128;4.220;2023-06-26T03:57:26;19.60;97.20
41324;DHT22;27073;51.128;4.220;2023-06-26T03:59:52;19.50;97.40
41324;DHT22;27073;51.128;4.220;2023-06-26T04:02:20;19.60;97.50
41324;DHT22;27073;51.128;4.220;2023-06-26T04:04:46;19.60;96.70
41324;DHT22;27073;51.128;4.220;2023-06-26T04:07:11;19.50;97.10
41324;DHT22;27073;51.128;4.220;2023-06-26T04:09:37;19.50;97.60
41324;DHT22;27073;51.128;4.220;2023-06-26T04:12:03;19.40;97.70
41324;DHT22;27073;51.128;4.220;2023-06-26T04:14:29;19.50;99.10
41324;DHT22;27073;51.128;4.220;2023-06-26T04:16:55;19.40;98.50
41324;DHT22;27073;51.128;4.220;2023-06-26T04:19:20;19.50;98.60
41324;DHT22;27073;51.128;4.220;2023-06-26T04:21:46;19.30;98.70
41324;DHT22;27073;51.128;4.220;2023-06-26T04:24:12;19.30;98.50
41324;DHT22;27073;51.128;4.220;2023-06-26T04:26:38;19.20;99.70
41324;DHT22;27073;51.128;4.220;2023-06-26T04:29:06;19.30;99.70
41324;DHT22;27073;51.128;4.220;2023-06-26T04:31:32;19.30;99.10
41324;DHT22;27073;51.128;4.220;2023-06-26T04:33:58;19.30;99.00
41324;DHT22;27073;51.128;4.220;2023-06-26T04:36:25;19.20;98.90
41324;DHT22;27073;51.128;4.220;2023-06-26T04:38:54;19.10;99.10
41324;DHT22;27073;51.128;4.220;2023-06-26T04:41:21;19.10;99.00
41324;DHT22;27073;51.128;4.220;2023-06-26T04:43:47;19.30;98.40
41324;DHT22;27073;51.128;4.220;2023-06-26T04:46:12;19.30;97.50
41324;DHT22;27073;51.128;4.220;2023-06-26T04:48:38;19.20;97.90
41324;DHT22;27073;51.128;4.220;2023-06-26T04:51:04;19.20;98.40
41324;DHT22;27073;51.128;4.220;2023-06-26T04:53:29;19.10;98.90
41324;DHT22;27073;51.128;4.220;2023-06-26T04:55:55;19.00;99.90
41324;DHT22;27073;51.128;4.220;2023-06-26T04:58:21;19.10;99.20
41324;DHT22;27073;51.128;4.220;2023-06-26T05:00:47;19.20;98.70
41324;DHT22;27073;51.128;4.220;2023-06-26T05:03:14;19.10;96.80
41324;DHT22;27073;51.128;4.220;2023-06-26T05:05:40;19.10;97.80
41324;DHT22;27073;51.128;4.220;2023-06-26T05:10:41;19.20;95.70
41324;DHT22;27073;51.128;4.220;2023-06-26T05:13:06;19.10;95.40
41324;DHT22;27073;51.128;4.220;2023-06-26T05:15:32;19.00;95.80
41324;DHT22;27073;51.128;4.220;2023-06-26T05:17:58;19.10;96.10
41324;DHT22;27073;51.128;4.220;2023-06-26T05:20:23;19.20;94.00
41324;DHT22;27073;51.128;4.220;2023-06-26T05:22:50;19.20;93.50
41324;DHT22;27073;51.128;4.220;2023-06-26T05:25:15;19.20;92.00
41324;DHT22;27073;51.128;4.220;2023-06-26T05:27:42;19.00;93.90
41324;DHT22;27073;51.128;4.220;2023-06-26T05:30:09;18.90;93.70
41324;DHT22;27073;51.128;4.220;2023-06-26T05:32:35;18.90;93.80
41324;DHT22;27073;51.128;4.220;2023-06-26T05:35:02;19.00;92.50
41324;DHT22;27073;51.128;4.220;2023-06-26T05:37:32;18.90;94.30
41324;DHT22;27073;51.128;4.220;2023-06-26T05:39:59;18.90;93.30
41324;DHT22;27073;51.128;4.220;2023-06-26T05:42:26;18.80;93.70
41324;DHT22;27073;51.128;4.220;2023-06-26T05:44:53;18.90;92.50
41324;DHT22;27073;51.128;4.220;2023-06-26T05:47:19;18.90;91.70
41324;DHT22;27073;51.128;4.220;2023-06-26T05:49:44;19.00;91.00
41324;DHT22;27073;51.128;4.220;2023-06-26T05:52:11;18.90;90.80
41324;DHT22;27073;51.128;4.220;2023-06-26T05:54:37;18.90;89.50
41324;DHT22;27073;51.128;4.220;2023-06-26T05:57:03;18.90;90.00
41324;DHT22;27073;51.128;4.220;2023-06-26T05:59:31;18.90;90.40
41324;DHT22;27073;51.128;4.220;2023-06-26T06:01:58;19.00;88.40
41324;DHT22;27073;51.128;4.220;2023-06-26T06:04:23;19.10;86.80
41324;DHT22;27073;51.128;4.220;2023-06-26T06:06:49;19.20;85.40
41324;DHT22;27073;51.128;4.220;2023-06-26T06:09:15;19.20;85.10
41324;DHT22;27073;51.128;4.220;2023-06-26T06:11:41;19.20;81.90
41324;DHT22;27073;51.128;4.220;2023-06-26T06:14:06;19.30;81.90
41324;DHT22;27073;51.128;4.220;2023-06-26T06:16:32;19.20;82.60
41324;DHT22;27073;51.128;4.220;2023-06-26T06:18:58;19.40;79.90
41324;DHT22;27073;51.128;4.220;2023-06-26T06:21:23;19.40;72.00
41324;DHT22;27073;51.128;4.220;2023-06-26T06:23:49;19.30;78.00
41324;DHT22;27073;51.128;4.220;2023-06-26T06:26:15;19.40;75.60
41324;DHT22;27073;51.128;4.220;2023-06-26T06:28:40;19.50;73.50
41324;DHT22;27073;51.128;4.220;2023-06-26T06:31:06;19.40;60.50
41324;DHT22;27073;51.128;4.220;2023-06-26T06:33:32;19.30;64.10
41324;DHT22;27073;51.128;4.220;2023-06-26T06:35:57;19.30;63.00
41324;DHT22;27073;51.128;4.220;2023-06-26T06:38:23;19.40;55.20
41324;DHT22;27073;51.128;4.220;2023-06-26T06:40:49;19.50;51.10
41324;DHT22;27073;51.128;4.220;2023-06-26T06:43:14;19.50;35.90
41324;DHT22;27073;51.128;4.220;2023-06-26T06:45:45;19.50;32.40
41324;DHT22;27073;51.128;4.220;2023-06-26T06:48:10;19.50;32.70
41324;DHT22;27073;51.128;4.220;2023-06-26T06:50:36;19.60;34.90
41324;DHT22;27073;51.128;4.220;2023-06-26T06:53:01;19.70;33.50
41324;DHT22;27073;51.128;4.220;2023-06-26T06:55:27;19.80;35.90
41324;DHT22;27073;51.128;4.220;2023-06-26T06:57:53;19.80;33.80
41324;DHT22;27073;51.128;4.220;2023-06-26T07:00:18;19.70;29.40
41324;DHT22;27073;51.128;4.220;2023-06-26T07:02:45;19.70;32.90
41324;DHT22;27073;51.128;4.220;2023-06-26T07:05:12;19.90;26.90
41324;DHT22;27073;51.128;4.220;2023-06-26T07:07:38;19.90;18.70
41324;DHT22;27073;51.128;4.220;2023-06-26T07:10:13;19.80;23.70
41324;DHT22;27073;51.128;4.220;2023-06-26T07:12:38;19.80;13.60
41324;DHT22;27073;51.128;4.220;2023-06-26T07:15:06;19.90;13.60
41324;DHT22;27073;51.128;4.220;2023-06-26T07:17:32;19.90;11.80
41324;DHT22;27073;51.128;4.220;2023-06-26T07:19:59;19.90;8.70
41324;DHT22;27073;51.128;4.220;2023-06-26T07:22:24;19.90;12.50
41324;DHT22;27073;51.128;4.220;2023-06-26T07:24:50;20.00;5.90
41324;DHT22;27073;51.128;4.220;2023-06-26T07:27:16;20.00;1.00
41324;DHT22;27073;51.128;4.220;2023-06-26T07:29:43;19.90;1.00
41324;DHT22;27073;51.128;4.220;2023-06-26T07:32:09;19.80;6.00
41324;DHT22;27073;51.128;4.220;2023-06-26T07:34:35;19.90;9.70
41324;DHT22;27073;51.128;4.220;2023-06-26T07:37:00;20.10;12.50
41324;DHT22;27073;51.128;4.220;2023-06-26T07:39:26;20.10;12.60
41324;DHT22;27073;51.128;4.220;2023-06-26T07:41:52;20.10;11.60
41324;DHT22;27073;51.128;4.220;2023-06-26T07:44:18;20.10;14.20
41324;DHT22;27073;51.128;4.220;2023-06-26T07:46:43;20.10;18.20
41324;DHT22;27073;51.128;4.220;2023-06-26T07:49:11;20.20;22.50
41324;DHT22;27073;51.128;4.220;2023-06-26T07:51:37;20.30;11.90
41324;DHT22;27073;51.128;4.220;2023-06-26T07:54:02;20.20;7.20
41324;DHT22;27073;51.128;4.220;2023-06-26T07:56:28;20.20;2.50
41324;DHT22;27073;51.128;4.220;2023-06-26T07:58:54;20.20;1.00
41324;DHT22;27073;51.128;4.220;2023-06-26T08:01:20;20.30;1.00
41324;DHT22;27073;51.128;4.220;2023-06-26T08:03:45;20.30;1.00
41324;DHT22;27073;51.128;4.220;2023-06-26T08:06:11;20.30;1.00
41324;DHT22;27073;51.128;4.220;2023-06-26T08:08:37;20.30;1.00
41324;DHT22;27073;51.128;4.220;2023-06-26T08:11:02;20.20;10.00
41324;DHT22;27073;51.128;4.220;2023-06-26T08:13:28;20.40;9.40
41324;DHT22;27073;51.128;4.220;2023-06-26T08:15:54;20.40;1.50
41324;DHT22;27073;51.128;4.220;2023-06-26T08:18:20;20.40;1.00
41324;DHT22;27073;51.128;4.220;2023-06-26T08:20:46;20.30;1.00
41324;DHT22;27073;51.128;4.220;2023-06-26T08:23:11;20.40;1.00
41324;DHT22;27073;51.128;4.220;2023-06-26T08:25:37;20.50;1.00
41324;DHT22;27073;51.128;4.220;2023-06-26T08:28:03;20.60;1.00
41324;DHT22;27073;51.128;4.220;2023-06-26T08:30:29;20.60;1.00
41324;DHT22;27073;51.128;4.220;2023-06-26T08:32:58;20.60;1.00
41324;DHT22;27073;51.128;4.220;2023-06-26T08:35:23;20.60;1.00
41324;DHT22;27073;51.128;4.220;2023-06-26T08:37:49;20.40;1.00
41324;DHT22;27073;51.128;4.220;2023-06-26T08:40:18;20.50;1.00
41324;DHT22;27073;51.128;4.220;2023-06-26T08:42:46;20.70;1.00
41324;DHT22;27073;51.128;4.220;2023-06-26T08:45:12;20.70;1.00
41324;DHT22;27073;51.128;4.220;2023-06-26T08:47:39;20.90;1.00
41324;DHT22;27073;51.128;4.220;2023-06-26T08:50:13;20.90;1.00
41324;DHT22;27073;51.128;4.220;2023-06-26T08:55:50;20.90;1.00
41324;DHT22;27073;51.128;4.220;2023-06-26T08:58:17;21.00;1.00
41324;DHT22;27073;51.128;4.220;2023-06-26T09:00:43;21.00;1.00
41324;DHT22;27073;51.128;4.220;2023-06-26T09:03:09;21.10;1.00
41324;DHT22;27073;51.128;4.220;2023-06-26T09:05:35;21.20;1.00
41324;DHT22;27073;51.128;4.220;2023-06-26T09:08:02;21.30;1.00
41324;DHT22;27073;51.128;4.220;2023-06-26T09:10:28;21.20;1.00
41324;DHT22;27073;51.128;4.220;2023-06-26T09:12:56;21.40;1.00
41324;DHT22;27073;51.128;4.220;2023-06-26T09:15:23;21.40;1.00
41324;DHT22;27073;51.128;4.220;2023-06-26T09:17:49;21.20;1.00
41324;DHT22;27073;51.128;4.220;2023-06-26T09:20:15;21.20;1.00
41324;DHT22;27073;51.128;4.220;2023-06-26T09:22:43;21.30;1.00
41324;DHT22;27073;51.128;4.220;2023-06-26T09:25:12;21.30;1.00
41324;DHT22;27073;51.128;4.220;2023-06-26T09:27:38;21.40;1.00
41324;DHT22;27073;51.128;4.220;2023-06-26T09:30:05;21.60;1.00
41324;DHT22;27073;51.128;4.220;2023-06-26T09:32:34;21.40;1.00
41324;DHT22;27073;51.128;4.220;2023-06-26T09:35:02;21.50;1.00
41324;DHT22;27073;51.128;4.220;2023-06-26T09:37:28;21.50;1.00
41324;DHT22;27073;51.128;4.220;2023-06-26T09:39:54;21.50;99.90
41324;DHT22;27073;51.128;4.220;2023-06-26T09:42:20;21.40;99.90
41324;DHT22;27073;51.128;4.220;2023-06-26T09:44:46;21.60;99.90
41324;DHT22;27073;51.128;4.220;2023-06-26T09:47:16;21.70;99.90
41324;DHT22;27073;51.128;4.220;2023-06-26T09:49:42;21.70;99.90
41324;DHT22;27073;51.128;4.220;2023-06-26T09:52:09;21.70;99.90
41324;DHT22;27073;51.128;4.220;2023-06-26T09:54:34;21.90;99.90
41324;DHT22;27073;51.128;4.220;2023-06-26T09:57:11;21.90;99.90
41324;DHT22;27073;51.128;4.220;2023-06-26T09:59:37;21.80;99.90
41324;DHT22;27073;51.128;4.220;2023-06-26T10:02:03;21.70;99.90
41324;DHT22;27073;51.128;4.220;2023-06-26T10:04:29;21.70;99.90
41324;DHT22;27073;51.128;4.220;2023-06-26T10:06:56;21.60;99.90
41324;DHT22;27073;51.128;4.220;2023-06-26T10:09:23;21.60;99.90
41324;DHT22;27073;51.128;4.220;2023-06-26T10:12:09;21.80;99.90
41324;DHT22;27073;51.128;4.220;2023-06-26T10:14:41;22.00;99.90
41324;DHT22;27073;51.128;4.220;2023-06-26T10:17:10;21.90;99.90
41324;DHT22;27073;51.128;4.220;2023-06-26T10:19:38;21.90;99.90
41324;DHT22;27073;51.128;4.220;2023-06-26T10:22:04;21.90;99.90
41324;DHT22;27073;51.128;4.220;2023-06-26T10:24:33;21.90;99.90
41324;DHT22;27073;51.128;4.220;2023-06-26T10:27:21;22.20;99.90
41324;DHT22;27073;51.128;4.220;2023-06-26T10:29:53;22.20;99.90
41324;DHT22;27073;51.128;4.220;2023-06-26T10:32:20;22.40;99.90
41324;DHT22;27073;51.128;4.220;2023-06-26T10:34:47;22.40;86.90
41324;DHT22;27073;51.128;4.220;2023-06-26T10:37:13;22.20;97.10
41324;DHT22;27073;51.128;4.220;2023-06-26T10:39:49;22.20;99.90
41324;DHT22;27073;51.128;4.220;2023-06-26T10:42:16;22.10;99.90
41324;DHT22;27073;51.128;4.220;2023-06-26T10:44:47;22.00;99.90
41324;DHT22;27073;51.128;4.220;2023-06-26T10:47:33;22.20;99.90
41324;DHT22;27073;51.128;4.220;2023-06-26T10:50:26;22.30;99.90
41324;DHT22;27073;51.128;4.220;2023-06-26T10:55:41;22.60;83.50
41324;DHT22;27073;51.128;4.220;2023-06-26T10:58:26;22.70;99.90
41324;DHT22;27073;51.128;4.220;2023-06-26T11:01:17;22.60;29.80
41324;DHT22;27073;51.128;4.220;2023-06-26T11:04:06;22.60;1.00
41324;DHT22;27073;51.128;4.220;2023-06-26T11:06:34;22.90;22.10
41324;DHT22;27073;51.128;4.220;2023-06-26T11:09:09;22.90;1.00
41324;DHT22;27073;51.128;4.220;2023-06-26T11:14:22;22.80;39.00
41324;DHT22;27073;51.128;4.220;2023-06-26T11:16:49;22.50;1.00
41324;DHT22;27073;51.128;4.220;2023-06-26T11:19:16;22.50;99.90
41324;DHT22;27073;51.128;4.220;2023-06-26T11:21:42;22.60;1.00
41324;DHT22;27073;51.128;4.220;2023-06-26T11:24:29;22.20;99.90
41324;DHT22;27073;51.128;4.220;2023-06-26T11:27:01;22.20;99.90
41324;DHT22;27073;51.128;4.220;2023-06-26T11:29:27;22.60;99.90
41324;DHT22;27073;51.128;4.220;2023-06-26T11:32:02;22.60;1.00
41324;DHT22;27073;51.128;4.220;2023-06-26T11:34:31;22.90;99.90
41324;DHT22;27073;51.128;4.220;2023-06-26T11:36:57;23.10;99.90
41324;DHT22;27073;51.128;4.220;2023-06-26T11:39:23;22.90;5.90
41324;DHT22;27073;51.128;4.220;2023-06-26T11:41:49;23.00;99.90
41324;DHT22;27073;51.128;4.220;2023-06-26T11:44:15;22.70;1.00
41324;DHT22;27073;51.128;4.220;2023-06-26T11:46:45;22.90;99.90
41324;DHT22;27073;51.128;4.220;2023-06-26T11:49:11;23.00;91.90
41324;DHT22;27073;51.128;4.220;2023-06-26T11:51:37;23.20;99.90
41324;DHT22;27073;51.128;4.220;2023-06-26T11:54:03;22.90;99.90
41324;DHT22;27073;51.128;4.220;2023-06-26T11:56:29;23.10;99.90
41324;DHT22;27073;51.128;4.220;2023-06-26T11:59:06;23.50;99.90
41324;DHT22;27073;51.128;4.220;2023-06-26T12:01:39;23.40;99.90
41324;DHT22;27073;51.128;4.220;2023-06-26T12:04:07;22.90;99.90
41324;DHT22;27073;51.128;4.220;2023-06-26T12:06:35;23.00;95.90
41324;DHT22;27073;51.128;4.220;2023-06-26T12:09:02;23.00;1.00
41324;DHT22;27073;51.128;4.220;2023-06-26T12:11:31;23.00;99.90
41324;DHT22;27073;51.128;4.220;2023-06-26T12:13:57;22.80;99.90
41324;DHT22;27073;51.128;4.220;2023-06-26T12:16:23;22.90;93.00
41324;DHT22;27073;51.128;4.220;2023-06-26T12:18:49;23.00;99.90
41324;DHT22;27073;51.128;4.220;2023-06-26T12:24:00;23.00;99.90
41324;DHT22;27073;51.128;4.220;2023-06-26T12:26:27;23.00;99.90
41324;DHT22;27073;51.128;4.220;2023-06-26T12:29:18;23.30;99.90
41324;DHT22;27073;51.128;4.220;2023-06-26T12:31:49;23.60;99.90
41324;DHT22;27073;51.128;4.220;2023-06-26T12:34:21;23.70;99.90
41324;DHT22;27073;51.128;4.220;2023-06-26T12:36:50;23.50;1.00
41324;DHT22;27073;51.128;4.220;2023-06-26T12:39:20;23.20;75.40
41324;DHT22;27073;51.128;4.220;2023-06-26T12:44:20;23.50;99.90
41324;DHT22;27073;51.128;4.220;2023-06-26T12:46:47;23.40;1.00
41324;DHT22;27073;51.128;4.220;2023-06-26T12:49:14;23.70;99.90
41324;DHT22;27073;51.128;4.220;2023-06-26T12:51:39;23.80;99.90
41324;DHT22;27073;51.128;4.220;2023-06-26T12:54:06;23.70;99.90
41324;DHT22;27073;51.128;4.220;2023-06-26T12:56:31;23.70;85.00
41324;DHT22;27073;51.128;4.220;2023-06-26T12:58:57;24.00;1.00
41324;DHT22;27073;51.128;4.220;2023-06-26T13:01:23;23.90;99.90
41324;DHT22;27073;51.128;4.220;2023-06-26T13:03:50;24.10;99.90
41324;DHT22;27073;51.128;4.220;2023-06-26T13:06:18;24.00;99.90
41324;DHT22;27073;51.128;4.220;2023-06-26T13:08:44;24.00;99.90
41324;DHT22;27073;51.128;4.220;2023-06-26T13:11:10;24.00;99.90
41324;DHT22;27073;51.128;4.220;2023-06-26T13:13:37;24.00;99.90
41324;DHT22;27073;51.128;4.220;2023-06-26T13:16:03;24.20;99.90
41324;DHT22;27073;51.128;4.220;2023-06-26T13:18:30;24.30;72.90
41324;DHT22;27073;51.128;4.220;2023-06-26T13:20:56;24.40;72.40
41324;DHT22;27073;51.128;4.220;2023-06-26T13:23:21;24.50;62.60
41324;DHT22;27073;51.128;4.220;2023-06-26T13:25:47;24.30;11.00
41324;DHT22;27073;51.128;4.220;2023-06-26T13:28:13;24.50;74.60
41324;DHT22;27073;51.128;4.220;2023-06-26T13:30:38;24.20;22.50
41324;DHT22;27073;51.128;4.220;2023-06-26T13:33:04;24.00;1.00
41324;DHT22;27073;51.128;4.220;2023-06-26T13:35:30;24.00;3.90
41324;DHT22;27073;51.128;4.220;2023-06-26T13:37:55;23.90;99.90
41324;DHT22;27073;51.128;4.220;2023-06-26T13:40:21;24.00;1.00
41324;DHT22;27073;51.128;4.220;2023-06-26T14:10:19;23.60;99.90
41324;DHT22;27073;51.128;4.220;2023-06-26T14:12:44;24.60;1.00
41324;DHT22;27073;51.128;4.220;2023-06-26T14:15:10;24.70;99.90
41324;DHT22;27073;51.128;4.220;2023-06-26T14:17:36;24.70;1.00
41324;DHT22;27073;51.128;4.220;2023-06-26T14:20:02;25.70;99.90
41324;DHT22;27073;51.128;4.220;2023-06-26T14:22:27;25.60;99.90
41324;DHT22;27073;51.128;4.220;2023-06-26T14:24:53;25.30;99.90
41324;DHT22;27073;51.128;4.220;2023-06-26T14:27:19;25.30;99.90
41324;DHT22;27073;51.128;4.220;2023-06-26T14:29:45;25.30;1.00
41324;DHT22;27073;51.128;4.220;2023-06-26T14:32:11;24.70;1.00
41324;DHT22;27073;51.128;4.220;2023-06-26T14:34:36;24.80;99.90
41324;DHT22;27073;51.128;4.220;2023-06-26T14:37:02;24.50;99.90
41324;DHT22;27073;51.128;4.220;2023-06-26T14:39:28;24.60;83.30
41324;DHT22;27073;51.128;4.220;2023-06-26T14:41:53;25.20;99.90
41324;DHT22;27073;51.128;4.220;2023-06-26T14:44:19;26.00;99.90
41324;DHT22;27073;51.128;4.220;2023-06-26T14:46:45;25.70;99.90
41324;DHT22;27073;51.128;4.220;2023-06-26T14:49:10;25.00;1.00
41324;DHT22;27073;51.128;4.220;2023-06-26T14:51:36;25.20;26.40
41324;DHT22;27073;51.128;4.220;2023-06-26T14:54:03;25.20;27.50
41324;DHT22;27073;51.128;4.220;2023-06-26T14:56:29;26.00;99.90
41324;DHT22;27073;51.128;4.220;2023-06-26T14:58:55;25.30;99.90
41324;DHT22;27073;51.128;4.220;2023-06-26T15:01:20;25.00;99.90
41324;DHT22;27073;51.128;4.220;2023-06-26T15:03:46;25.50;1.00
41324;DHT22;27073;51.128;4.220;2023-06-26T15:06:12;26.00;99.90
41324;DHT22;27073;51.128;4.220;2023-06-26T15:08:38;26.30;1.00
41324;DHT22;27073;51.128;4.220;2023-06-26T15:11:04;26.70;58.50
41324;DHT22;27073;51.128;4.220;2023-06-26T15:13:29;25.50;99.90
41324;DHT22;27073;51.128;4.220;2023-06-26T15:15:55;25.00;81.30
41324;DHT22;27073;51.128;4.220;2023-06-26T15:18:21;24.80;99.90
41324;DHT22;27073;51.128;4.220;2023-06-26T15:20:47;25.30;99.90
41324;DHT22;27073;51.128;4.220;2023-06-26T15:23:12;25.30;1.00
41324;DHT22;27073;51.128;4.220;2023-06-26T15:25:38;25.40;99.90
41324;DHT22;27073;51.128;4.220;2023-06-26T15:28:05;25.60;1.00
41324;DHT22;27073;51.128;4.220;2023-06-26T15:30:31;25.10;99.90
41324;DHT22;27073;51.128;4.220;2023-06-26T15:32:56;25.00;99.90
41324;DHT22;27073;51.128;4.220;2023-06-26T15:35:22;25.20;99.90
41324;DHT22;27073;51.128;4.220;2023-06-26T15:37:49;25.40;99.90
41324;DHT22;27073;51.128;4.220;2023-06-26T15:40:17;25.10;1.00
41324;DHT22;27073;51.128;4.220;2023-06-26T15:42:47;24.90;99.90
41324;DHT22;27073;51.128;4.220;2023-06-26T15:45:13;24.80;99.90
41324;DHT22;27073;51.128;4.220;2023-06-26T15:47:40;24.50;1.00
41324;DHT22;27073;51.128;4.220;2023-06-26T15:50:07;24.10;56.10
41324;DHT22;27073;51.128;4.220;2023-06-26T15:52:32;24.00;10.50
41324;DHT22;27073;51.128;4.220;2023-06-26T15:54:58;23.60;99.90
41324;DHT22;27073;51.128;4.220;2023-06-26T15:57:24;23.50;99.90
41324;DHT22;27073;51.128;4.220;2023-06-26T15:59:50;23.40;75.80
41324;DHT22;27073;51.128;4.220;2023-06-26T16:02:15;23.30;99.90
41324;DHT22;27073;51.128;4.220;2023-06-26T16:04:41;23.30;99.90
41324;DHT22;27073;51.128;4.220;2023-06-26T16:07:06;23.30;99.90
41324;DHT22;27073;51.128;4.220;2023-06-26T16:09:32;23.50;54.10
41324;DHT22;27073;51.128;4.220;2023-06-26T16:11:58;23.40;46.00
41324;DHT22;27073;51.128;4.220;2023-06-26T16:14:24;23.60;38.40
41324;DHT22;27073;51.128;4.220;2023-06-26T16:16:49;23.90;1.00
41324;DHT22;27073;51.128;4.220;2023-06-26T16:19:15;23.90;99.90
41324;DHT22;27073;51.128;4.220;2023-06-26T16:21:41;23.50;99.90
41324;DHT22;27073;51.128;4.220;2023-06-26T16:24:06;23.40;1.00
41324;DHT22;27073;51.128;4.220;2023-06-26T16:26:34;23.40;10.40
41324;DHT22;27073;51.128;4.220;2023-06-26T16:28:59;23.40;1.00
41324;DHT22;27073;51.128;4.220;2023-06-26T16:31:25;23.20;99.90